sensor_id;sensor_type;location;lat;lon;timestamp;P1;durP1;ratioP1;P2;durP2;ratioP2
7903;SDS011;3997;48.416;8.512;2023-04-21T00:01:58;12.15;;;9.88;;
7903;SDS011;3997;48.416;8.512;2023-04-21T00:04:25;10.95;;;9.65;;
7903;SDS011;3997;48.416;8.512;2023-04-21T00:06:52;11.73;;;10.07;;
7903;SDS011;3997;48.416;8.512;2023-04-21T00:09:19;10.75;;;9.05;;
7903;SDS011;3997;48.416;8.512;2023-04-21T00:11:45;12.30;;;10.00;;
7903;SDS011;3997;48.416;8.512;2023-04-21T00:14:13;13.15;;;10.40;;
7903;SDS011;3997;48.416;8.512;2023-04-21T00:16:39;11.23;;;9.70;;
7903;SDS011;3997;48.416;8.512;2023-04-21T00:19:06;11.55;;;9.75;;
7903;SDS011;3997;48.416;8.512;2023-04-21T00:21:32;12.27;;;10.60;;
7903;SDS011;3997;48.416;8.512;2023-04-21T00:23:59;12.73;;;10.55;;
7903;SDS011;3997;48.416;8.512;2023-04-21T00:26:25;11.63;;;9.88;;
7903;SDS011;3997;48.416;8.512;2023-04-21T00:28:52;12.25;;;10.68;;
7903;SDS011;3997;48.416;8.512;2023-04-21T00:31:20;12.77;;;9.82;;
7903;SDS011;3997;48.416;8.512;2023-04-21T00:33:46;10.70;;;9.38;;
7903;SDS011;3997;48.416;8.512;2023-04-21T00:36:12;12.55;;;9.77;;
7903;SDS011;3997;48.416;8.512;2023-04-21T00:38:39;14.30;;;9.23;;
7903;SDS011;3997;48.416;8.512;2023-04-21T00:41:05;16.40;;;10.90;;
7903;SDS011;3997;48.416;8.512;2023-04-21T00:43:32;82.82;;;12.40;;
7903;SDS011;3997;48.416;8.512;2023-04-21T00:45:58;521.70;;;20.52;;
7903;SDS011;3997;48.416;8.512;2023-04-21T00:48:26;502.98;;;22.10;;
7903;SDS011;3997;48.416;8.512;2023-04-21T00:50:52;184.25;;;14.93;;
7903;SDS011;3997;48.416;8.512;2023-04-21T00:53:19;498.70;;;19.83;;
7903;SDS011;3997;48.416;8.512;2023-04-21T00:55:45;55.10;;;10.32;;
7903;SDS011;3997;48.416;8.512;2023-04-21T00:58:12;12.68;;;10.38;;
7903;SDS011;3997;48.416;8.512;2023-04-21T01:00:38;11.85;;;8.77;;
7903;SDS011;3997;48.416;8.512;2023-04-21T01:03:05;10.70;;;8.48;;
7903;SDS011;3997;48.416;8.512;2023-04-21T01:05:33;9.32;;;7.82;;
7903;SDS011;3997;48.416;8.512;2023-04-21T01:08:00;10.70;;;8.35;;
7903;SDS011;3997;48.416;8.512;2023-04-21T01:10:26;10.95;;;8.50;;
7903;SDS011;3997;48.416;8.512;2023-04-21T01:12:53;10.43;;;8.88;;
7903;SDS011;3997;48.416;8.512;2023-04-21T01:15:19;18.13;;;10.23;;
7903;SDS011;3997;48.416;8.512;2023-04-21T01:17:45;27.95;;;10.48;;
7903;SDS011;3997;48.416;8.512;2023-04-21T01:20:13;148.90;;;13.20;;
7903;SDS011;3997;48.416;8.512;2023-04-21T01:22:41;103.40;;;12.27;;
7903;SDS011;3997;48.416;8.512;2023-04-21T01:25:09;238.45;;;15.18;;
7903;SDS011;3997;48.416;8.512;2023-04-21T01:27:35;167.57;;;12.35;;
7903;SDS011;3997;48.416;8.512;2023-04-21T01:30:02;84.10;;;11.00;;
7903;SDS011;3997;48.416;8.512;2023-04-21T01:32:29;69.38;;;10.25;;
7903;SDS011;3997;48.416;8.512;2023-04-21T01:34:55;118.95;;;10.48;;
7903;SDS011;3997;48.416;8.512;2023-04-21T01:37:24;100.00;;;9.00;;
7903;SDS011;3997;48.416;8.512;2023-04-21T01:39:53;17.45;;;7.40;;
7903;SDS011;3997;48.416;8.512;2023-04-21T01:42:22;8.57;;;6.82;;
7903;SDS011;3997;48.416;8.512;2023-04-21T01:44:48;8.60;;;7.22;;
7903;SDS011;3997;48.416;8.512;2023-04-21T01:47:17;9.60;;;7.50;;
7903;SDS011;3997;48.416;8.512;2023-04-21T01:49:44;9.07;;;7.60;;
7903;SDS011;3997;48.416;8.512;2023-04-21T01:52:10;9.20;;;7.70;;
7903;SDS011;3997;48.416;8.512;2023-04-21T01:54:37;8.65;;;7.43;;
7903;SDS011;3997;48.416;8.512;2023-04-21T01:57:04;7.40;;;6.60;;
7903;SDS011;3997;48.416;8.512;2023-04-21T01:59:31;8.02;;;6.53;;
7903;SDS011;3997;48.416;8.512;2023-04-21T02:01:57;7.63;;;6.80;;
7903;SDS011;3997;48.416;8.512;2023-04-21T02:04:24;10.27;;;7.00;;
7903;SDS011;3997;48.416;8.512;2023-04-21T02:06:50;7.57;;;6.78;;
7903;SDS011;3997;48.416;8.512;2023-04-21T02:09:17;7.50;;;6.38;;
7903;SDS011;3997;48.416;8.512;2023-04-21T02:11:43;9.45;;;7.60;;
7903;SDS011;3997;48.416;8.512;2023-04-21T02:14:11;79.75;;;8.68;;
7903;SDS011;3997;48.416;8.512;2023-04-21T02:16:37;172.98;;;10.50;;
7903;SDS011;3997;48.416;8.512;2023-04-21T02:19:04;60.55;;;6.53;;
7903;SDS011;3997;48.416;8.512;2023-04-21T02:21:31;125.85;;;7.32;;
7903;SDS011;3997;48.416;8.512;2023-04-21T02:23:57;57.17;;;5.78;;
7903;SDS011;3997;48.416;8.512;2023-04-21T02:26:24;32.35;;;5.32;;
7903;SDS011;3997;48.416;8.512;2023-04-21T02:28:50;4.85;;;4.40;;
7903;SDS011;3997;48.416;8.512;2023-04-21T02:31:18;4.85;;;4.35;;
7903;SDS011;3997;48.416;8.512;2023-04-21T02:33:44;6.80;;;5.00;;
7903;SDS011;3997;48.416;8.512;2023-04-21T02:36:11;5.45;;;4.75;;
7903;SDS011;3997;48.416;8.512;2023-04-21T02:38:37;5.97;;;5.18;;
7903;SDS011;3997;48.416;8.512;2023-04-21T02:41:04;4.97;;;4.47;;
7903;SDS011;3997;48.416;8.512;2023-04-21T02:43:30;26.58;;;5.20;;
7903;SDS011;3997;48.416;8.512;2023-04-21T02:45:57;32.92;;;5.50;;
7903;SDS011;3997;48.416;8.512;2023-04-21T02:48:24;34.38;;;5.55;;
7903;SDS011;3997;48.416;8.512;2023-04-21T02:50:51;30.77;;;4.95;;
7903;SDS011;3997;48.416;8.512;2023-04-21T02:53:18;66.60;;;5.57;;
7903;SDS011;3997;48.416;8.512;2023-04-21T02:55:44;120.30;;;6.30;;
7903;SDS011;3997;48.416;8.512;2023-04-21T02:58:11;233.05;;;8.75;;
7903;SDS011;3997;48.416;8.512;2023-04-21T03:00:37;177.88;;;6.72;;
7903;SDS011;3997;48.416;8.512;2023-04-21T03:03:03;6.63;;;2.90;;
7903;SDS011;3997;48.416;8.512;2023-04-21T03:05:32;64.55;;;4.70;;
7903;SDS011;3997;48.416;8.512;2023-04-21T03:07:58;96.30;;;5.20;;
7903;SDS011;3997;48.416;8.512;2023-04-21T03:10:24;109.80;;;5.05;;
7903;SDS011;3997;48.416;8.512;2023-04-21T03:12:51;118.22;;;5.80;;
7903;SDS011;3997;48.416;8.512;2023-04-21T03:15:17;268.02;;;9.63;;
7903;SDS011;3997;48.416;8.512;2023-04-21T03:17:45;207.73;;;7.43;;
7903;SDS011;3997;48.416;8.512;2023-04-21T03:20:11;207.55;;;7.93;;
7903;SDS011;3997;48.416;8.512;2023-04-21T03:22:39;170.20;;;7.15;;
7903;SDS011;3997;48.416;8.512;2023-04-21T03:25:06;88.45;;;4.93;;
7903;SDS011;3997;48.416;8.512;2023-04-21T03:27:32;197.13;;;6.80;;
7903;SDS011;3997;48.416;8.512;2023-04-21T03:29:59;203.20;;;9.32;;
7903;SDS011;3997;48.416;8.512;2023-04-21T03:32:25;162.48;;;7.00;;
7903;SDS011;3997;48.416;8.512;2023-04-21T03:34:52;171.98;;;7.03;;
7903;SDS011;3997;48.416;8.512;2023-04-21T03:37:18;91.28;;;6.90;;
7903;SDS011;3997;48.416;8.512;2023-04-21T03:39:46;5.57;;;4.35;;
7903;SDS011;3997;48.416;8.512;2023-04-21T03:42:12;4.20;;;3.80;;
7903;SDS011;3997;48.416;8.512;2023-04-21T03:44:39;5.75;;;4.70;;
7903;SDS011;3997;48.416;8.512;2023-04-21T03:47:05;4.40;;;4.00;;
7903;SDS011;3997;48.416;8.512;2023-04-21T03:49:32;7.00;;;4.45;;
7903;SDS011;3997;48.416;8.512;2023-04-21T03:51:59;32.03;;;6.38;;
7903;SDS011;3997;48.416;8.512;2023-04-21T03:54:25;49.88;;;7.68;;
7903;SDS011;3997;48.416;8.512;2023-04-21T03:56:53;38.83;;;7.32;;
7903;SDS011;3997;48.416;8.512;2023-04-21T03:59:19;65.15;;;8.07;;
7903;SDS011;3997;48.416;8.512;2023-04-21T04:01:46;33.17;;;8.27;;
7903;SDS011;3997;48.416;8.512;2023-04-21T04:04:12;194.35;;;11.82;;
7903;SDS011;3997;48.416;8.512;2023-04-21T04:06:39;85.03;;;8.75;;
7903;SDS011;3997;48.416;8.512;2023-04-21T04:09:05;17.60;;;7.20;;
7903;SDS011;3997;48.416;8.512;2023-04-21T04:11:33;18.88;;;7.30;;
7903;SDS011;3997;48.416;8.512;2023-04-21T04:14:00;42.42;;;9.70;;
7903;SDS011;3997;48.416;8.512;2023-04-21T04:16:27;54.70;;;8.10;;
7903;SDS011;3997;48.416;8.512;2023-04-21T04:18:53;37.72;;;8.40;;
7903;SDS011;3997;48.416;8.512;2023-04-21T04:21:20;159.32;;;10.00;;
7903;SDS011;3997;48.416;8.512;2023-04-21T04:23:48;180.60;;;8.90;;
7903;SDS011;3997;48.416;8.512;2023-04-21T04:26:15;104.45;;;8.43;;
7903;SDS011;3997;48.416;8.512;2023-04-21T04:28:42;29.58;;;6.97;;
7903;SDS011;3997;48.416;8.512;2023-04-21T04:31:10;21.33;;;7.43;;
7903;SDS011;3997;48.416;8.512;2023-04-21T04:33:39;27.02;;;6.95;;
7903;SDS011;3997;48.416;8.512;2023-04-21T04:36:06;37.35;;;6.38;;
7903;SDS011;3997;48.416;8.512;2023-04-21T04:38:32;24.50;;;6.63;;
7903;SDS011;3997;48.416;8.512;2023-04-21T04:41:01;83.78;;;9.05;;
7903;SDS011;3997;48.416;8.512;2023-04-21T04:43:28;39.05;;;6.85;;
7903;SDS011;3997;48.416;8.512;2023-04-21T04:45:57;97.15;;;8.38;;
7903;SDS011;3997;48.416;8.512;2023-04-21T04:48:25;52.30;;;6.93;;
7903;SDS011;3997;48.416;8.512;2023-04-21T04:50:51;89.82;;;8.52;;
7903;SDS011;3997;48.416;8.512;2023-04-21T04:53:18;211.48;;;10.38;;
7903;SDS011;3997;48.416;8.512;2023-04-21T04:55:44;153.60;;;9.93;;
7903;SDS011;3997;48.416;8.512;2023-04-21T04:58:11;62.45;;;7.32;;
7903;SDS011;3997;48.416;8.512;2023-04-21T05:00:37;41.72;;;5.57;;
7903;SDS011;3997;48.416;8.512;2023-04-21T05:03:04;111.88;;;8.02;;
7903;SDS011;3997;48.416;8.512;2023-04-21T05:05:32;61.15;;;7.68;;
7903;SDS011;3997;48.416;8.512;2023-04-21T05:07:59;76.47;;;7.35;;
7903;SDS011;3997;48.416;8.512;2023-04-21T05:10:25;82.38;;;6.80;;
7903;SDS011;3997;48.416;8.512;2023-04-21T05:12:52;63.25;;;6.70;;
7903;SDS011;3997;48.416;8.512;2023-04-21T05:15:18;86.43;;;7.00;;
7903;SDS011;3997;48.416;8.512;2023-04-21T05:17:44;101.97;;;8.77;;
7903;SDS011;3997;48.416;8.512;2023-04-21T05:20:11;39.33;;;6.18;;
7903;SDS011;3997;48.416;8.512;2023-04-21T05:22:39;66.85;;;6.85;;
7903;SDS011;3997;48.416;8.512;2023-04-21T05:25:06;63.92;;;7.18;;
7903;SDS011;3997;48.416;8.512;2023-04-21T05:27:33;87.65;;;7.70;;
7903;SDS011;3997;48.416;8.512;2023-04-21T05:29:59;67.38;;;7.30;;
7903;SDS011;3997;48.416;8.512;2023-04-21T05:32:25;144.45;;;8.85;;
7903;SDS011;3997;48.416;8.512;2023-04-21T05:34:53;122.05;;;7.95;;
7903;SDS011;3997;48.416;8.512;2023-04-21T05:37:19;91.60;;;7.57;;
7903;SDS011;3997;48.416;8.512;2023-04-21T05:39:47;118.75;;;7.40;;
7903;SDS011;3997;48.416;8.512;2023-04-21T05:42:14;61.08;;;6.55;;
7903;SDS011;3997;48.416;8.512;2023-04-21T05:44:42;73.63;;;8.50;;
7903;SDS011;3997;48.416;8.512;2023-04-21T05:47:08;55.53;;;8.68;;
7903;SDS011;3997;48.416;8.512;2023-04-21T05:49:35;108.13;;;8.68;;
7903;SDS011;3997;48.416;8.512;2023-04-21T05:52:01;53.80;;;7.45;;
7903;SDS011;3997;48.416;8.512;2023-04-21T05:54:28;115.97;;;8.45;;
7903;SDS011;3997;48.416;8.512;2023-04-21T05:56:56;47.70;;;7.38;;
7903;SDS011;3997;48.416;8.512;2023-04-21T05:59:22;77.75;;;8.50;;
7903;SDS011;3997;48.416;8.512;2023-04-21T06:01:50;151.30;;;9.82;;
7903;SDS011;3997;48.416;8.512;2023-04-21T06:04:17;89.22;;;9.20;;
7903;SDS011;3997;48.416;8.512;2023-04-21T06:06:43;45.53;;;9.65;;
7903;SDS011;3997;48.416;8.512;2023-04-21T06:09:10;110.10;;;9.50;;
7903;SDS011;3997;48.416;8.512;2023-04-21T06:11:39;136.88;;;9.43;;
7903;SDS011;3997;48.416;8.512;2023-04-21T06:14:07;137.95;;;8.23;;
7903;SDS011;3997;48.416;8.512;2023-04-21T06:16:33;221.98;;;11.10;;
7903;SDS011;3997;48.416;8.512;2023-04-21T06:19:00;137.38;;;8.05;;
7903;SDS011;3997;48.416;8.512;2023-04-21T06:21:26;190.02;;;9.82;;
7903;SDS011;3997;48.416;8.512;2023-04-21T06:23:53;88.82;;;7.22;;
7903;SDS011;3997;48.416;8.512;2023-04-21T06:26:19;41.15;;;8.75;;
7903;SDS011;3997;48.416;8.512;2023-04-21T06:28:46;168.55;;;11.40;;
7903;SDS011;3997;48.416;8.512;2023-04-21T06:31:14;65.43;;;6.22;;
7903;SDS011;3997;48.416;8.512;2023-04-21T06:33:40;43.58;;;7.05;;
7903;SDS011;3997;48.416;8.512;2023-04-21T06:36:07;33.20;;;7.63;;
7903;SDS011;3997;48.416;8.512;2023-04-21T06:38:33;61.22;;;7.03;;
7903;SDS011;3997;48.416;8.512;2023-04-21T06:41:00;79.25;;;6.45;;
7903;SDS011;3997;48.416;8.512;2023-04-21T06:43:26;57.75;;;7.60;;
7903;SDS011;3997;48.416;8.512;2023-04-21T06:45:53;42.05;;;6.68;;
7903;SDS011;3997;48.416;8.512;2023-04-21T06:48:20;32.95;;;9.65;;
7903;SDS011;3997;48.416;8.512;2023-04-21T06:50:48;37.47;;;5.78;;
7903;SDS011;3997;48.416;8.512;2023-04-21T06:53:14;19.77;;;5.50;;
7903;SDS011;3997;48.416;8.512;2023-04-21T06:55:42;21.30;;;5.45;;
7903;SDS011;3997;48.416;8.512;2023-04-21T06:58:08;16.05;;;5.00;;
7903;SDS011;3997;48.416;8.512;2023-04-21T07:00:35;14.88;;;6.20;;
7903;SDS011;3997;48.416;8.512;2023-04-21T07:03:01;20.80;;;5.45;;
7903;SDS011;3997;48.416;8.512;2023-04-21T07:05:29;16.98;;;5.28;;
7903;SDS011;3997;48.416;8.512;2023-04-21T07:07:56;19.77;;;5.53;;
7903;SDS011;3997;48.416;8.512;2023-04-21T07:10:24;38.17;;;6.65;;
7903;SDS011;3997;48.416;8.512;2023-04-21T07:12:50;10.07;;;5.18;;
7903;SDS011;3997;48.416;8.512;2023-04-21T07:15:17;7.50;;;5.38;;
7903;SDS011;3997;48.416;8.512;2023-04-21T07:17:43;9.02;;;5.30;;
7903;SDS011;3997;48.416;8.512;2023-04-21T07:20:10;9.52;;;5.00;;
7903;SDS011;3997;48.416;8.512;2023-04-21T07:22:38;23.15;;;6.15;;
7903;SDS011;3997;48.416;8.512;2023-04-21T07:25:04;6.13;;;5.53;;
7903;SDS011;3997;48.416;8.512;2023-04-21T07:27:31;10.18;;;6.45;;
7903;SDS011;3997;48.416;8.512;2023-04-21T07:29:58;7.38;;;5.97;;
7903;SDS011;3997;48.416;8.512;2023-04-21T07:32:24;8.07;;;5.97;;
7903;SDS011;3997;48.416;8.512;2023-04-21T07:34:51;10.63;;;6.00;;
7903;SDS011;3997;48.416;8.512;2023-04-21T07:37:17;9.50;;;5.90;;
7903;SDS011;3997;48.416;8.512;2023-04-21T07:39:45;44.85;;;6.60;;
7903;SDS011;3997;48.416;8.512;2023-04-21T07:42:11;7.97;;;5.85;;
7903;SDS011;3997;48.416;8.512;2023-04-21T07:44:38;5.93;;;4.88;;
7903;SDS011;3997;48.416;8.512;2023-04-21T07:47:04;7.07;;;5.20;;
7903;SDS011;3997;48.416;8.512;2023-04-21T07:49:31;6.38;;;5.22;;
7903;SDS011;3997;48.416;8.512;2023-04-21T07:51:57;5.28;;;4.22;;
7903;SDS011;3997;48.416;8.512;2023-04-21T07:54:24;5.25;;;4.75;;
7903;SDS011;3997;48.416;8.512;2023-04-21T07:56:51;4.55;;;4.05;;
7903;SDS011;3997;48.416;8.512;2023-04-21T07:59:18;5.63;;;4.38;;
7903;SDS011;3997;48.416;8.512;2023-04-21T08:01:44;4.63;;;4.20;;
7903;SDS011;3997;48.416;8.512;2023-04-21T08:04:11;4.43;;;4.00;;
7903;SDS011;3997;48.416;8.512;2023-04-21T08:06:37;6.03;;;4.47;;
7903;SDS011;3997;48.416;8.512;2023-04-21T08:09:04;4.15;;;3.72;;
7903;SDS011;3997;48.416;8.512;2023-04-21T08:11:30;4.45;;;4.05;;
7903;SDS011;3997;48.416;8.512;2023-04-21T08:13:58;4.78;;;4.38;;
7903;SDS011;3997;48.416;8.512;2023-04-21T08:16:24;3.63;;;3.33;;
7903;SDS011;3997;48.416;8.512;2023-04-21T08:18:51;4.80;;;3.70;;
7903;SDS011;3997;48.416;8.512;2023-04-21T08:21:17;3.80;;;3.47;;
7903;SDS011;3997;48.416;8.512;2023-04-21T08:23:44;3.00;;;2.58;;
7903;SDS011;3997;48.416;8.512;2023-04-21T08:26:10;3.50;;;3.20;;
7903;SDS011;3997;48.416;8.512;2023-04-21T08:28:37;3.50;;;3.20;;
7903;SDS011;3997;48.416;8.512;2023-04-21T08:31:05;4.30;;;3.90;;
7903;SDS011;3997;48.416;8.512;2023-04-21T08:33:31;4.00;;;3.60;;
7903;SDS011;3997;48.416;8.512;2023-04-21T08:35:58;3.80;;;3.50;;
7903;SDS011;3997;48.416;8.512;2023-04-21T08:38:24;3.35;;;3.10;;
7903;SDS011;3997;48.416;8.512;2023-04-21T08:40:50;4.18;;;3.70;;
7903;SDS011;3997;48.416;8.512;2023-04-21T08:43:17;4.57;;;3.70;;
7903;SDS011;3997;48.416;8.512;2023-04-21T08:45:44;3.65;;;3.17;;
7903;SDS011;3997;48.416;8.512;2023-04-21T08:48:12;3.25;;;2.95;;
7903;SDS011;3997;48.416;8.512;2023-04-21T08:50:40;3.10;;;2.80;;
7903;SDS011;3997;48.416;8.512;2023-04-21T08:53:10;3.40;;;3.10;;
7903;SDS011;3997;48.416;8.512;2023-04-21T08:55:36;3.47;;;3.17;;
7903;SDS011;3997;48.416;8.512;2023-04-21T08:58:03;3.10;;;2.90;;
7903;SDS011;3997;48.416;8.512;2023-04-21T09:00:30;3.60;;;3.30;;
7903;SDS011;3997;48.416;8.512;2023-04-21T09:02:57;3.28;;;2.97;;
7903;SDS011;3997;48.416;8.512;2023-04-21T09:05:26;3.72;;;3.42;;
7903;SDS011;3997;48.416;8.512;2023-04-21T09:07:53;2.90;;;2.70;;
7903;SDS011;3997;48.416;8.512;2023-04-21T09:10:32;3.63;;;3.33;;
7903;SDS011;3997;48.416;8.512;2023-04-21T09:12:59;3.75;;;3.45;;
7903;SDS011;3997;48.416;8.512;2023-04-21T09:15:33;3.80;;;3.03;;
7903;SDS011;3997;48.416;8.512;2023-04-21T09:18:04;3.83;;;3.47;;
7903;SDS011;3997;48.416;8.512;2023-04-21T09:20:36;4.00;;;3.50;;
7903;SDS011;3997;48.416;8.512;2023-04-21T09:23:03;3.40;;;3.10;;
7903;SDS011;3997;48.416;8.512;2023-04-21T09:25:30;4.20;;;3.90;;
7903;SDS011;3997;48.416;8.512;2023-04-21T09:27:57;3.58;;;3.28;;
7903;SDS011;3997;48.416;8.512;2023-04-21T09:30:25;3.97;;;3.63;;
7903;SDS011;3997;48.416;8.512;2023-04-21T09:32:51;4.28;;;3.88;;
7903;SDS011;3997;48.416;8.512;2023-04-21T09:35:20;3.90;;;3.60;;
7903;SDS011;3997;48.416;8.512;2023-04-21T09:37:48;4.00;;;3.47;;
7903;SDS011;3997;48.416;8.512;2023-04-21T09:40:16;4.45;;;3.60;;
7903;SDS011;3997;48.416;8.512;2023-04-21T09:42:43;4.13;;;3.83;;
7903;SDS011;3997;48.416;8.512;2023-04-21T09:45:10;3.95;;;3.60;;
7903;SDS011;3997;48.416;8.512;2023-04-21T09:47:38;4.10;;;3.83;;
7903;SDS011;3997;48.416;8.512;2023-04-21T09:50:05;4.97;;;4.57;;
7903;SDS011;3997;48.416;8.512;2023-04-21T09:52:32;4.25;;;3.95;;
7903;SDS011;3997;48.416;8.512;2023-04-21T09:55:01;4.90;;;4.50;;
7903;SDS011;3997;48.416;8.512;2023-04-21T09:57:28;4.35;;;4.05;;
7903;SDS011;3997;48.416;8.512;2023-04-21T09:59:58;3.45;;;3.25;;
7903;SDS011;3997;48.416;8.512;2023-04-21T10:02:25;3.60;;;3.30;;
7903;SDS011;3997;48.416;8.512;2023-04-21T10:04:55;4.18;;;3.83;;
7903;SDS011;3997;48.416;8.512;2023-04-21T10:07:21;4.20;;;3.83;;
7903;SDS011;3997;48.416;8.512;2023-04-21T10:09:50;4.45;;;4.05;;
7903;SDS011;3997;48.416;8.512;2023-04-21T10:12:19;4.50;;;4.20;;
7903;SDS011;3997;48.416;8.512;2023-04-21T10:17:15;3.97;;;3.78;;
7903;SDS011;3997;48.416;8.512;2023-04-21T10:19:47;4.32;;;4.03;;
7903;SDS011;3997;48.416;8.512;2023-04-21T10:22:13;4.40;;;4.10;;
7903;SDS011;3997;48.416;8.512;2023-04-21T10:24:41;3.95;;;3.75;;
7903;SDS011;3997;48.416;8.512;2023-04-21T10:27:08;4.40;;;4.10;;
7903;SDS011;3997;48.416;8.512;2023-04-21T10:29:36;4.50;;;4.20;;
7903;SDS011;3997;48.416;8.512;2023-04-21T10:32:03;4.75;;;4.45;;
7903;SDS011;3997;48.416;8.512;2023-04-21T10:34:33;4.70;;;4.40;;
7903;SDS011;3997;48.416;8.512;2023-04-21T10:39:42;4.05;;;3.83;;
7903;SDS011;3997;48.416;8.512;2023-04-21T10:45:11;4.10;;;3.83;;
7903;SDS011;3997;48.416;8.512;2023-04-21T10:47:41;4.40;;;4.10;;
7903;SDS011;3997;48.416;8.512;2023-04-21T10:50:12;4.35;;;4.15;;
7903;SDS011;3997;48.416;8.512;2023-04-21T10:52:38;5.25;;;4.95;;
7903;SDS011;3997;48.416;8.512;2023-04-21T10:55:09;4.60;;;4.30;;
7903;SDS011;3997;48.416;8.512;2023-04-21T10:57:36;5.40;;;5.10;;
7903;SDS011;3997;48.416;8.512;2023-04-21T11:00:06;5.38;;;5.07;;
7903;SDS011;3997;48.416;8.512;2023-04-21T11:02:35;4.95;;;4.65;;
7903;SDS011;3997;48.416;8.512;2023-04-21T11:05:02;4.65;;;4.38;;
7903;SDS011;3997;48.416;8.512;2023-04-21T11:07:28;5.05;;;4.75;;
7903;SDS011;3997;48.416;8.512;2023-04-21T11:09:56;4.97;;;4.68;;
7903;SDS011;3997;48.416;8.512;2023-04-21T11:12:24;5.32;;;4.93;;
7903;SDS011;3997;48.416;8.512;2023-04-21T11:14:51;4.78;;;4.53;;
7903;SDS011;3997;48.416;8.512;2023-04-21T11:17:18;4.82;;;4.63;;
7903;SDS011;3997;48.416;8.512;2023-04-21T11:19:47;5.75;;;5.35;;
7903;SDS011;3997;48.416;8.512;2023-04-21T11:22:15;5.22;;;4.82;;
7903;SDS011;3997;48.416;8.512;2023-04-21T11:24:42;4.93;;;4.70;;
7903;SDS011;3997;48.416;8.512;2023-04-21T11:27:09;5.70;;;5.40;;
7903;SDS011;3997;48.416;8.512;2023-04-21T11:29:36;5.60;;;5.20;;
7903;SDS011;3997;48.416;8.512;2023-04-21T11:32:04;5.45;;;5.15;;
7903;SDS011;3997;48.416;8.512;2023-04-21T11:34:31;6.18;;;5.88;;
7903;SDS011;3997;48.416;8.512;2023-04-21T11:36:59;5.53;;;5.18;;
7903;SDS011;3997;48.416;8.512;2023-04-21T11:39:25;5.70;;;5.40;;
7903;SDS011;3997;48.416;8.512;2023-04-21T11:41:52;5.88;;;5.57;;
7903;SDS011;3997;48.416;8.512;2023-04-21T11:44:31;5.93;;;5.55;;
7903;SDS011;3997;48.416;8.512;2023-04-21T11:46:58;5.38;;;5.18;;
7903;SDS011;3997;48.416;8.512;2023-04-21T11:49:25;4.60;;;4.40;;
7903;SDS011;3997;48.416;8.512;2023-04-21T11:51:53;4.75;;;4.55;;
7903;SDS011;3997;48.416;8.512;2023-04-21T11:54:27;5.80;;;5.50;;
7903;SDS011;3997;48.416;8.512;2023-04-21T11:56:55;5.00;;;4.70;;
7903;SDS011;3997;48.416;8.512;2023-04-21T11:59:23;5.18;;;4.95;;
7903;SDS011;3997;48.416;8.512;2023-04-21T12:01:50;5.18;;;4.88;;
7903;SDS011;3997;48.416;8.512;2023-04-21T12:04:18;5.20;;;4.97;;
7903;SDS011;3997;48.416;8.512;2023-04-21T12:06:45;5.28;;;4.97;;
7903;SDS011;3997;48.416;8.512;2023-04-21T12:09:15;4.57;;;4.38;;
7903;SDS011;3997;48.416;8.512;2023-04-21T12:11:45;5.35;;;5.00;;
7903;SDS011;3997;48.416;8.512;2023-04-21T12:14:12;4.78;;;4.57;;
7903;SDS011;3997;48.416;8.512;2023-04-21T12:16:39;4.97;;;4.78;;
7903;SDS011;3997;48.416;8.512;2023-04-21T12:19:06;5.10;;;4.90;;
7903;SDS011;3997;48.416;8.512;2023-04-21T12:21:35;5.22;;;5.00;;
7903;SDS011;3997;48.416;8.512;2023-04-21T12:24:02;5.50;;;5.20;;
7903;SDS011;3997;48.416;8.512;2023-04-21T12:26:28;5.00;;;4.70;;
7903;SDS011;3997;48.416;8.512;2023-04-21T12:28:56;4.88;;;4.68;;
7903;SDS011;3997;48.416;8.512;2023-04-21T12:31:24;4.63;;;4.35;;
7903;SDS011;3997;48.416;8.512;2023-04-21T12:33:51;5.00;;;4.75;;
7903;SDS011;3997;48.416;8.512;2023-04-21T12:36:17;4.82;;;4.63;;
7903;SDS011;3997;48.416;8.512;2023-04-21T12:38:43;4.65;;;4.43;;
7903;SDS011;3997;48.416;8.512;2023-04-21T12:41:10;4.50;;;4.30;;
7903;SDS011;3997;48.416;8.512;2023-04-21T12:43:36;5.00;;;4.80;;
7903;SDS011;3997;48.416;8.512;2023-04-21T12:46:04;4.82;;;4.63;;
7903;SDS011;3997;48.416;8.512;2023-04-21T12:48:31;4.88;;;4.57;;
7903;SDS011;3997;48.416;8.512;2023-04-21T12:50:58;4.78;;;4.57;;
7903;SDS011;3997;48.416;8.512;2023-04-21T12:53:25;4.75;;;4.55;;
7903;SDS011;3997;48.416;8.512;2023-04-21T12:55:51;4.30;;;4.10;;
7903;SDS011;3997;48.416;8.512;2023-04-21T12:58:18;4.53;;;4.32;;
7903;SDS011;3997;48.416;8.512;2023-04-21T13:00:44;4.50;;;4.30;;
7903;SDS011;3997;48.416;8.512;2023-04-21T13:03:12;5.38;;;5.07;;
7903;SDS011;3997;48.416;8.512;2023-04-21T13:05:38;4.72;;;4.53;;
7903;SDS011;3997;48.416;8.512;2023-04-21T13:08:05;4.90;;;4.60;;
7903;SDS011;3997;48.416;8.512;2023-04-21T13:10:31;4.93;;;4.53;;
7903;SDS011;3997;48.416;8.512;2023-04-21T13:12:57;5.25;;;5.05;;
7903;SDS011;3997;48.416;8.512;2023-04-21T13:15:24;5.85;;;5.13;;
7903;SDS011;3997;48.416;8.512;2023-04-21T13:17:50;5.30;;;5.10;;
7903;SDS011;3997;48.416;8.512;2023-04-21T13:20:18;5.30;;;4.90;;
7903;SDS011;3997;48.416;8.512;2023-04-21T13:22:45;4.70;;;4.40;;
7903;SDS011;3997;48.416;8.512;2023-04-21T13:25:11;4.80;;;4.60;;
7903;SDS011;3997;48.416;8.512;2023-04-21T13:27:37;4.78;;;4.57;;
7903;SDS011;3997;48.416;8.512;2023-04-21T13:30:07;4.55;;;4.25;;
7903;SDS011;3997;48.416;8.512;2023-04-21T13:32:34;4.63;;;4.43;;
7903;SDS011;3997;48.416;8.512;2023-04-21T13:35:01;4.28;;;4.07;;
7903;SDS011;3997;48.416;8.512;2023-04-21T13:37:30;4.90;;;4.60;;
7903;SDS011;3997;48.416;8.512;2023-04-21T13:39:56;4.60;;;4.40;;
7903;SDS011;3997;48.416;8.512;2023-04-21T13:42:23;4.80;;;4.50;;
7903;SDS011;3997;48.416;8.512;2023-04-21T13:44:49;4.88;;;4.68;;
7903;SDS011;3997;48.416;8.512;2023-04-21T13:47:16;5.03;;;4.72;;
7903;SDS011;3997;48.416;8.512;2023-04-21T13:49:42;4.35;;;4.15;;
7903;SDS011;3997;48.416;8.512;2023-04-21T13:52:09;4.30;;;4.00;;
7903;SDS011;3997;48.416;8.512;2023-04-21T13:54:37;4.10;;;3.90;;
7903;SDS011;3997;48.416;8.512;2023-04-21T13:57:04;4.00;;;3.80;;
7903;SDS011;3997;48.416;8.512;2023-04-21T13:59:31;3.72;;;3.60;;
7903;SDS011;3997;48.416;8.512;2023-04-21T14:01:57;4.25;;;3.97;;
7903;SDS011;3997;48.416;8.512;2023-04-21T14:04:23;3.67;;;3.58;;
7903;SDS011;3997;48.416;8.512;2023-04-21T14:06:50;4.07;;;3.97;;
7903;SDS011;3997;48.416;8.512;2023-04-21T14:09:16;4.25;;;4.03;;
7903;SDS011;3997;48.416;8.512;2023-04-21T14:11:44;4.00;;;3.80;;
7903;SDS011;3997;48.416;8.512;2023-04-21T14:14:11;4.00;;;3.80;;
7903;SDS011;3997;48.416;8.512;2023-04-21T14:16:37;4.00;;;3.80;;
7903;SDS011;3997;48.416;8.512;2023-04-21T14:19:03;3.78;;;3.55;;
7903;SDS011;3997;48.416;8.512;2023-04-21T14:21:30;4.18;;;3.95;;
7903;SDS011;3997;48.416;8.512;2023-04-21T14:23:57;3.67;;;3.58;;
7903;SDS011;3997;48.416;8.512;2023-04-21T14:26:23;4.15;;;4.00;;
7903;SDS011;3997;48.416;8.512;2023-04-21T14:28:51;3.70;;;3.58;;
7903;SDS011;3997;48.416;8.512;2023-04-21T14:31:18;4.15;;;4.05;;
7903;SDS011;3997;48.416;8.512;2023-04-21T14:33:44;3.80;;;3.70;;
7903;SDS011;3997;48.416;8.512;2023-04-21T14:36:10;4.10;;;3.92;;
7903;SDS011;3997;48.416;8.512;2023-04-21T14:38:37;4.45;;;4.25;;
7903;SDS011;3997;48.416;8.512;2023-04-21T14:41:03;4.32;;;4.18;;
7903;SDS011;3997;48.416;8.512;2023-04-21T14:43:30;4.35;;;4.15;;
7903;SDS011;3997;48.416;8.512;2023-04-21T14:45:58;3.75;;;3.65;;
7903;SDS011;3997;48.416;8.512;2023-04-21T14:48:24;3.80;;;3.70;;
7903;SDS011;3997;48.416;8.512;2023-04-21T14:50:51;3.80;;;3.70;;
7903;SDS011;3997;48.416;8.512;2023-04-21T14:53:17;3.40;;;3.20;;
7903;SDS011;3997;48.416;8.512;2023-04-21T14:55:44;3.10;;;3.00;;
7903;SDS011;3997;48.416;8.512;2023-04-21T14:58:10;3.10;;;3.00;;
7903;SDS011;3997;48.416;8.512;2023-04-21T15:00:37;3.60;;;3.40;;
7903;SDS011;3997;48.416;8.512;2023-04-21T15:03:05;3.38;;;3.28;;
7903;SDS011;3997;48.416;8.512;2023-04-21T15:05:31;3.40;;;3.30;;
7903;SDS011;3997;48.416;8.512;2023-04-21T15:07:58;3.10;;;3.00;;
7903;SDS011;3997;48.416;8.512;2023-04-21T15:10:25;3.03;;;2.92;;
7903;SDS011;3997;48.416;8.512;2023-04-21T15:12:51;2.90;;;2.80;;
7903;SDS011;3997;48.416;8.512;2023-04-21T15:15:18;3.10;;;3.00;;